createdAt,value
2022-09-27T00:00:45.482Z,0.95
2022-09-27T00:03:12.833Z,0.68
2022-09-27T00:05:41.184Z,0.60
2022-09-27T00:08:07.805Z,0.70
2022-09-27T00:10:35.278Z,0.50
2022-09-27T00:13:01.752Z,0.50
2022-09-27T00:15:28.186Z,0.50
2022-09-27T00:17:55.185Z,0.40
2022-09-27T00:20:21.899Z,0.55
2022-09-27T00:22:49.585Z,0.53
2022-09-27T00:25:16.747Z,0.50
2022-09-27T00:27:45.251Z,0.60
2022-09-27T00:30:12.327Z,0.50
2022-09-27T00:32:38.745Z,0.57
2022-09-27T00:35:05.433Z,0.70
2022-09-27T00:37:32.229Z,0.70
2022-09-27T00:39:58.681Z,0.40
2022-09-27T00:42:25.214Z,0.70
2022-09-27T00:45:00.455Z,0.52
2022-09-27T00:47:36.751Z,0.50
2022-09-27T00:50:18.348Z,0.40
2022-09-27T00:53:09.970Z,0.45
2022-09-27T00:55:59.265Z,0.40
2022-09-27T00:58:35.963Z,0.40
2022-09-27T01:01:07.434Z,0.40
2022-09-27T01:03:41.362Z,0.50
2022-09-27T01:06:09.023Z,0.60
2022-09-27T01:08:35.750Z,0.50
2022-09-27T01:11:46.926Z,0.50
2022-09-27T01:14:46.014Z,0.60
2022-09-27T01:17:21.735Z,0.50
2022-09-27T01:20:13.041Z,0.77
2022-09-27T01:22:54.577Z,0.50
2022-09-27T01:25:45.471Z,0.63
2022-09-27T01:28:20.064Z,0.57
2022-09-27T01:31:10.705Z,0.50
2022-09-27T01:33:44.478Z,0.70
2022-09-27T01:36:17.505Z,0.40
2022-09-27T01:39:08.167Z,0.50
2022-09-27T01:42:00.668Z,0.40
2022-09-27T01:44:33.079Z,0.40
2022-09-27T01:47:11.634Z,0.40
2022-09-27T01:50:23.800Z,0.50
2022-09-27T01:53:04.948Z,1.13
2022-09-27T01:55:36.448Z,0.50
2022-09-27T01:58:25.936Z,0.60
2022-09-27T02:00:55.247Z,0.40
2022-09-27T02:03:28.411Z,0.40
2022-09-27T02:06:03.077Z,0.60
2022-09-27T02:08:47.612Z,0.50
2022-09-27T02:11:14.923Z,0.40
2022-09-27T02:14:03.788Z,0.40
2022-09-27T02:16:45.597Z,0.40
2022-09-27T02:19:38.403Z,0.43
2022-09-27T02:22:32.116Z,0.40
2022-09-27T02:25:16.592Z,0.50
2022-09-27T02:28:04.908Z,0.50
2022-09-27T02:30:31.739Z,0.30
2022-09-27T02:32:58.107Z,0.38
2022-09-27T02:35:32.230Z,0.47
2022-09-27T02:37:58.951Z,0.28
2022-09-27T02:40:31.051Z,0.45
2022-09-27T02:42:57.946Z,0.40
2022-09-27T02:45:30.486Z,0.52
2022-09-27T02:48:13.264Z,0.50
2022-09-27T02:51:15.149Z,0.50
2022-09-27T02:54:12.063Z,0.40
2022-09-27T02:56:49.875Z,0.73
2022-09-27T02:59:30.200Z,0.30
2022-09-27T03:02:14.830Z,0.33
2022-09-27T03:04:53.720Z,0.30
2022-09-27T03:07:20.327Z,0.20
2022-09-27T03:09:49.740Z,0.30
2022-09-27T03:12:22.518Z,0.30
2022-09-27T03:14:49.518Z,0.20
2022-09-27T03:17:15.871Z,0.52
2022-09-27T03:19:42.231Z,0.20
2022-09-27T03:22:08.795Z,0.40
2022-09-27T03:24:35.164Z,0.30
2022-09-27T03:27:01.936Z,0.50
2022-09-27T03:29:28.599Z,0.47
2022-09-27T03:31:54.948Z,0.30
2022-09-27T03:34:22.155Z,0.40
2022-09-27T03:36:48.564Z,0.40
2022-09-27T03:39:14.946Z,0.40
2022-09-27T03:41:41.634Z,0.38
2022-09-27T03:44:08.306Z,0.40
2022-09-27T03:46:34.763Z,0.50
2022-09-27T03:49:01.377Z,0.40
2022-09-27T03:51:27.707Z,0.50
2022-09-27T03:53:54.060Z,0.50
2022-09-27T03:56:20.415Z,0.40
2022-09-27T03:58:47.072Z,0.40
2022-09-27T04:01:13.741Z,0.40
2022-09-27T04:03:40.184Z,0.30
2022-09-27T04:06:07.139Z,0.40
2022-09-27T04:08:33.703Z,0.20
2022-09-27T04:11:00.220Z,0.30
2022-09-27T04:13:26.604Z,0.30
2022-09-27T04:15:53.026Z,0.30
2022-09-27T04:18:19.382Z,0.40
2022-09-27T04:20:45.793Z,0.40
2022-09-27T04:23:12.323Z,0.32
2022-09-27T04:25:39.858Z,0.40
2022-09-27T04:28:06.259Z,0.40
2022-09-27T04:30:32.675Z,0.20
2022-09-27T04:32:59.054Z,0.30
2022-09-27T04:35:44.146Z,0.30
2022-09-27T04:38:10.504Z,0.55
2022-09-27T04:40:37.074Z,0.40
2022-09-27T04:43:04.402Z,0.35
2022-09-27T04:45:31.467Z,0.30
2022-09-27T04:47:57.874Z,0.20
2022-09-27T04:50:24.679Z,0.30
2022-09-27T04:52:52.297Z,0.30
2022-09-27T04:55:20.414Z,0.40
2022-09-27T04:57:47.511Z,0.52
2022-09-27T05:00:14.692Z,0.40
2022-09-27T05:02:43.652Z,0.40
2022-09-27T05:05:11.660Z,0.40
2022-09-27T05:07:39.319Z,0.30
2022-09-27T05:10:06.952Z,0.30
2022-09-27T05:12:33.363Z,0.30
2022-09-27T05:14:59.878Z,0.30
2022-09-27T05:17:26.326Z,0.30
2022-09-27T05:19:52.700Z,0.32
2022-09-27T05:22:20.115Z,0.20
2022-09-27T05:24:47.150Z,0.30
2022-09-27T05:27:18.354Z,0.40
2022-09-27T05:29:45.567Z,0.30
2022-09-27T05:32:12.350Z,0.40
2022-09-27T05:34:38.884Z,0.35
2022-09-27T05:37:05.297Z,0.30
2022-09-27T05:39:31.822Z,0.50
2022-09-27T05:41:58.180Z,0.50
2022-09-27T05:44:25.953Z,0.30
2022-09-27T05:46:52.814Z,0.50
2022-09-27T05:49:20.228Z,0.30
2022-09-27T05:51:47.703Z,0.40
2022-09-27T05:54:15.220Z,0.40
2022-09-27T05:56:41.658Z,0.40
2022-09-27T05:59:08.077Z,0.90
2022-09-27T06:01:35.716Z,0.40
2022-09-27T06:04:04.709Z,0.57
2022-09-27T06:06:34.145Z,0.20
2022-09-27T06:09:01.335Z,0.40
2022-09-27T06:11:28.260Z,0.40
2022-09-27T06:13:54.626Z,1.23
2022-09-27T06:16:21.070Z,0.50
2022-09-27T06:18:47.469Z,0.50
2022-09-27T06:21:13.839Z,0.40
2022-09-27T06:23:40.174Z,0.40
2022-09-27T06:26:07.981Z,0.30
2022-09-27T06:28:37.209Z,0.30
2022-09-27T06:31:07.466Z,0.40
2022-09-27T06:33:35.043Z,0.30
2022-09-27T06:36:03.055Z,0.40
2022-09-27T06:38:29.654Z,0.28
2022-09-27T06:40:58.164Z,0.30
2022-09-27T06:43:25.899Z,0.33
2022-09-27T06:45:52.367Z,0.40
2022-09-27T06:48:18.730Z,0.20
2022-09-27T06:50:47.012Z,0.30
2022-09-27T06:53:15.454Z,0.30
2022-09-27T06:55:42.565Z,0.43
2022-09-27T06:58:31.122Z,0.35
2022-09-27T07:00:58.609Z,0.30
2022-09-27T07:03:36.539Z,0.47
2022-09-27T07:06:06.539Z,0.57
2022-09-27T07:08:34.051Z,0.30
2022-09-27T07:11:06.378Z,0.40
2022-09-27T07:13:34.442Z,0.43
2022-09-27T07:16:01.683Z,0.40
2022-09-27T07:18:28.071Z,0.40
2022-09-27T07:20:59.332Z,0.40
2022-09-27T07:23:26.796Z,0.30
2022-09-27T07:25:53.160Z,0.40
2022-09-27T07:28:21.962Z,0.30
2022-09-27T07:30:49.643Z,0.40
2022-09-27T07:33:16.041Z,0.30
2022-09-27T07:35:43.732Z,0.45
2022-09-27T07:38:13.135Z,0.40
2022-09-27T07:40:40.755Z,0.50
2022-09-27T07:43:09.331Z,0.40
2022-09-27T07:45:36.365Z,0.30
2022-09-27T07:48:08.473Z,0.38
2022-09-27T07:50:35.611Z,0.40
2022-09-27T07:53:02.055Z,0.45
2022-09-27T07:55:28.485Z,0.40
2022-09-27T07:58:05.784Z,0.30
2022-09-27T08:00:32.607Z,0.40
2022-09-27T08:02:59.066Z,0.40
2022-09-27T08:05:25.763Z,0.68
2022-09-27T08:07:59.199Z,0.40
2022-09-27T08:10:31.228Z,0.40
2022-09-27T08:13:06.351Z,0.35
2022-09-27T08:15:35.911Z,0.35
2022-09-27T08:18:02.368Z,0.50
2022-09-27T08:20:28.712Z,0.32
2022-09-27T08:22:55.151Z,0.30
2022-09-27T08:25:24.292Z,0.40
2022-09-27T08:27:58.354Z,0.30
2022-09-27T08:30:25.534Z,0.40
2022-09-27T08:32:58.923Z,0.43
2022-09-27T08:35:25.607Z,0.37
2022-09-27T08:38:02.496Z,0.40
2022-09-27T08:40:43.349Z,0.30
2022-09-27T08:43:29.016Z,0.40
2022-09-27T08:45:58.319Z,0.38
2022-09-27T08:48:29.000Z,0.50
2022-09-27T08:50:56.896Z,0.47
2022-09-27T08:53:43.103Z,0.30
2022-09-27T08:56:11.077Z,0.30
2022-09-27T08:58:43.714Z,0.40
2022-09-27T09:01:15.004Z,0.30
2022-09-27T09:03:49.972Z,0.38
2022-09-27T09:06:42.677Z,0.30
2022-09-27T09:09:38.444Z,0.20
2022-09-27T09:12:30.550Z,0.40
2022-09-27T09:15:18.983Z,0.30
2022-09-27T09:18:01.074Z,0.30
2022-09-27T09:20:30.455Z,0.30
2022-09-27T09:23:06.488Z,0.30
2022-09-27T09:25:51.235Z,0.30
2022-09-27T09:28:42.000Z,0.30
2022-09-27T09:31:08.290Z,0.40
2022-09-27T09:33:41.258Z,0.50
2022-09-27T09:36:35.302Z,0.30
2022-09-27T09:39:25.792Z,0.30
2022-09-27T09:42:13.084Z,0.40
2022-09-27T09:44:51.565Z,0.30
2022-09-27T09:47:48.188Z,0.22
2022-09-27T09:50:19.091Z,0.40
2022-09-27T09:52:54.317Z,0.40
2022-09-27T09:55:28.561Z,0.30
2022-09-27T09:58:21.212Z,0.38
2022-09-27T10:00:50.725Z,0.30
2022-09-27T10:03:17.252Z,0.30
2022-09-27T10:05:45.140Z,0.40
2022-09-27T10:08:22.870Z,0.40
2022-09-27T10:10:49.321Z,0.40
2022-09-27T10:13:18.171Z,0.30
2022-09-27T10:16:16.575Z,0.40
2022-09-27T10:18:47.637Z,0.30
2022-09-27T10:21:25.835Z,0.40
2022-09-27T10:24:16.830Z,0.38
2022-09-27T10:26:46.945Z,0.30
2022-09-27T10:29:45.476Z,0.35
2022-09-27T10:32:27.251Z,0.32
2022-09-27T10:34:53.627Z,0.40
2022-09-27T10:37:22.463Z,0.47
2022-09-27T10:39:51.791Z,0.35
2022-09-27T10:42:36.338Z,0.40
2022-09-27T10:45:25.556Z,0.38
2022-09-27T10:47:52.395Z,0.20
2022-09-27T10:53:19.100Z,0.20
2022-09-27T10:55:50.059Z,0.20
2022-09-27T10:58:38.383Z,0.20
2022-09-27T11:01:12.557Z,0.20
2022-09-27T11:03:57.475Z,0.20
2022-09-27T11:06:23.896Z,0.30
2022-09-27T11:08:52.395Z,0.30
2022-09-27T11:11:27.220Z,0.40
2022-09-27T11:14:07.927Z,0.33
2022-09-27T11:16:45.165Z,0.30
2022-09-27T11:19:33.425Z,0.20
2022-09-27T11:28:15.835Z,0.20
2022-09-27T11:31:03.802Z,0.20
2022-09-27T11:33:35.847Z,0.22
2022-09-27T11:36:10.388Z,0.28
2022-09-27T11:39:02.358Z,0.38
2022-09-27T11:42:01.475Z,0.40
2022-09-27T11:45:08.152Z,0.20
2022-09-27T11:48:03.912Z,0.40
2022-09-27T11:50:48.379Z,0.30
2022-09-27T11:53:33.558Z,0.22
2022-09-27T11:56:31.946Z,0.20
2022-09-27T11:59:16.094Z,0.20
2022-09-27T12:02:32.213Z,0.20
2022-09-27T12:05:37.539Z,0.20
2022-09-27T12:08:18.685Z,0.15
2022-09-27T12:10:50.895Z,0.20
2022-09-27T12:13:28.661Z,0.20
2022-09-27T12:15:56.714Z,0.20
2022-09-27T12:18:31.587Z,0.20
2022-09-27T12:21:02.885Z,0.20
2022-09-27T12:23:36.732Z,0.20
2022-09-27T12:26:32.636Z,0.20
2022-09-27T12:29:14.270Z,0.30
2022-09-27T12:32:08.918Z,0.20
2022-09-27T12:34:43.177Z,0.30
2022-09-27T12:37:19.738Z,0.30
2022-09-27T12:39:59.911Z,0.20
2022-09-27T12:42:34.905Z,0.20
2022-09-27T12:45:01.401Z,0.30
2022-09-27T12:47:53.938Z,0.25
2022-09-27T12:50:43.589Z,0.20
2022-09-27T12:53:25.371Z,0.20
2022-09-27T12:56:17.365Z,0.20
2022-09-27T12:59:01.923Z,0.30
2022-09-27T13:02:12.624Z,0.20
2022-09-27T13:04:56.662Z,0.30
2022-09-27T13:08:05.118Z,0.30
2022-09-27T13:11:07.566Z,0.20
2022-09-27T13:13:36.742Z,0.20
2022-09-27T13:16:04.506Z,0.30
2022-09-27T13:18:37.966Z,0.30
2022-09-27T13:21:08.994Z,0.30
2022-09-27T13:23:35.760Z,0.30
2022-09-27T13:26:20.183Z,0.28
2022-09-27T13:28:49.327Z,0.40
2022-09-27T13:31:16.695Z,0.30
2022-09-27T13:33:47.444Z,0.28
2022-09-27T13:36:16.797Z,0.30
2022-09-27T13:39:14.363Z,0.30
2022-09-27T13:41:47.737Z,0.30
2022-09-27T13:44:32.949Z,0.20
2022-09-27T13:47:36.144Z,0.25
2022-09-27T13:50:16.925Z,0.30
2022-09-27T13:52:47.316Z,0.20
2022-09-27T13:55:40.200Z,0.30
2022-09-27T13:58:18.840Z,0.27
2022-09-27T14:00:50.634Z,0.30
2022-09-27T14:03:26.055Z,0.22
2022-09-27T14:05:57.717Z,0.60
2022-09-27T14:08:27.086Z,0.50
2022-09-27T14:10:55.140Z,0.30
2022-09-27T14:13:24.204Z,0.20
2022-09-27T14:15:53.222Z,0.30
2022-09-27T14:18:21.444Z,0.30
2022-09-27T14:20:52.185Z,0.22
2022-09-27T14:23:23.736Z,0.20
2022-09-27T14:25:52.812Z,0.30
2022-09-27T14:31:23.706Z,0.20
2022-09-27T14:34:04.853Z,0.20
2022-09-27T14:36:52.243Z,0.40
2022-09-27T14:39:34.928Z,0.20
2022-09-27T14:42:05.409Z,0.20
2022-09-27T14:44:33.271Z,0.20
2022-09-27T14:47:19.503Z,0.20
2022-09-27T14:49:50.548Z,0.20
2022-09-27T14:52:39.228Z,0.20
2022-09-27T14:55:10.311Z,0.30
2022-09-27T14:57:37.272Z,0.38
2022-09-27T15:00:17.061Z,0.22
2022-09-27T15:02:44.488Z,0.30
2022-09-27T15:05:19.751Z,0.20
2022-09-27T15:07:48.088Z,0.30
2022-09-27T15:10:20.146Z,0.30
2022-09-27T15:12:50.432Z,0.30
2022-09-27T15:15:21.474Z,0.27
2022-09-27T15:17:48.256Z,0.20
2022-09-27T15:20:34.899Z,0.30
2022-09-27T15:23:04.111Z,0.32
2022-09-27T15:25:36.774Z,0.40
2022-09-27T15:28:16.272Z,0.40
2022-09-27T15:30:51.735Z,0.40
2022-09-27T15:33:23.804Z,0.30
2022-09-27T15:35:52.734Z,0.30
2022-09-27T15:38:27.088Z,0.30
2022-09-27T15:40:53.542Z,0.30
2022-09-27T15:43:31.734Z,0.35
2022-09-27T15:46:03.004Z,0.30
2022-09-27T15:48:32.143Z,0.30
2022-09-27T15:50:59.551Z,0.30
2022-09-27T15:53:35.136Z,0.30
2022-09-27T15:56:03.713Z,0.30
2022-09-27T15:58:31.492Z,0.30
2022-09-27T16:01:02.407Z,0.40
2022-09-27T16:03:29.865Z,0.30
2022-09-27T16:05:57.388Z,0.30
2022-09-27T16:08:24.583Z,0.30
2022-09-27T16:10:54.913Z,0.60
2022-09-27T16:13:22.411Z,0.30
2022-09-27T16:15:50.060Z,0.28
2022-09-27T16:18:16.555Z,0.20
2022-09-27T16:20:43.044Z,0.40
2022-09-27T16:23:09.512Z,0.30
2022-09-27T16:25:35.903Z,0.20
2022-09-27T16:28:04.001Z,0.40
2022-09-27T16:30:31.366Z,0.40
2022-09-27T16:32:59.160Z,0.38
2022-09-27T16:35:26.893Z,0.30
2022-09-27T16:37:53.264Z,0.40
2022-09-27T16:40:19.958Z,0.40
2022-09-27T16:42:49.908Z,0.30
2022-09-27T16:45:19.303Z,0.30
2022-09-27T16:47:46.728Z,0.30
2022-09-27T16:50:32.685Z,0.30
2022-09-27T16:53:00.159Z,0.32
2022-09-27T16:55:28.576Z,0.40
2022-09-27T16:57:58.617Z,0.40
2022-09-27T17:00:25.628Z,0.50
2022-09-27T17:02:53.071Z,0.40
2022-09-27T17:05:20.230Z,0.47
2022-09-27T17:07:50.961Z,0.40
2022-09-27T17:10:18.301Z,0.40
2022-09-27T17:12:46.064Z,0.50
2022-09-27T17:15:12.562Z,0.55
2022-09-27T17:17:39.267Z,0.60
2022-09-27T17:20:05.971Z,0.60
2022-09-27T17:22:32.661Z,0.65
2022-09-27T17:24:59.095Z,0.70
2022-09-27T17:27:28.272Z,0.70
2022-09-27T17:29:55.388Z,0.70
2022-09-27T17:32:24.680Z,0.70
2022-09-27T17:34:52.010Z,0.70
2022-09-27T17:37:18.592Z,0.60
2022-09-27T17:39:44.998Z,0.85
2022-09-27T17:42:12.628Z,0.80
2022-09-27T17:44:39.072Z,0.93
2022-09-27T17:47:24.099Z,0.80
2022-09-27T17:50:08.862Z,0.82
2022-09-27T17:52:35.396Z,0.90
2022-09-27T17:55:01.855Z,0.80
2022-09-27T17:57:28.391Z,0.80
2022-09-27T17:59:54.820Z,0.88
2022-09-27T18:02:21.497Z,1.10
2022-09-27T18:04:47.916Z,1.13
2022-09-27T18:07:14.390Z,1.10
2022-09-27T18:09:40.753Z,1.00
2022-09-27T18:12:07.167Z,1.00
2022-09-27T18:14:33.553Z,1.10
2022-09-27T18:16:59.959Z,1.10
2022-09-27T18:19:26.478Z,1.20
2022-09-27T18:21:53.120Z,1.30
2022-09-27T18:24:19.479Z,1.60
2022-09-27T18:26:48.937Z,1.25
2022-09-27T18:29:18.519Z,1.40
2022-09-27T18:31:48.743Z,1.30
2022-09-27T18:34:17.543Z,1.20
2022-09-27T18:36:44.583Z,1.45
2022-09-27T18:39:18.893Z,1.30
2022-09-27T18:41:46.542Z,1.27
2022-09-27T18:44:14.234Z,1.13
2022-09-27T18:46:41.486Z,1.30
2022-09-27T18:49:10.892Z,1.35
2022-09-27T18:51:41.768Z,1.30
2022-09-27T18:54:22.357Z,1.40
2022-09-27T18:56:50.202Z,1.30
2022-09-27T18:59:17.105Z,1.27
2022-09-27T19:01:46.377Z,1.30
2022-09-27T19:04:19.247Z,1.50
2022-09-27T19:06:48.221Z,1.40
2022-09-27T19:09:14.618Z,1.25
2022-09-27T19:11:41.023Z,1.30
2022-09-27T19:14:07.573Z,1.40
2022-09-27T19:16:34.300Z,1.40
2022-09-27T19:19:00.812Z,1.30
2022-09-27T19:21:29.255Z,1.30
2022-09-27T19:23:56.277Z,1.40
2022-09-27T19:26:25.657Z,1.73
2022-09-27T19:28:52.433Z,1.40
2022-09-27T19:31:21.324Z,1.20
2022-09-27T19:33:48.152Z,1.20
2022-09-27T19:36:15.937Z,1.33
2022-09-27T19:38:43.107Z,1.30
2022-09-27T19:41:12.144Z,1.17
2022-09-27T19:43:38.677Z,1.50
2022-09-27T19:46:09.162Z,1.33
2022-09-27T19:48:37.295Z,1.20
2022-09-27T19:51:05.214Z,1.35
2022-09-27T19:53:32.619Z,1.45
2022-09-27T19:56:00.794Z,1.50
2022-09-27T19:58:28.043Z,1.30
2022-09-27T20:01:08.643Z,1.70
2022-09-27T20:03:37.548Z,1.30
2022-09-27T20:06:06.177Z,1.50
2022-09-27T20:08:32.596Z,1.20
2022-09-27T20:11:10.311Z,1.40
2022-09-27T20:13:37.834Z,1.17
2022-09-27T20:16:12.940Z,1.50
2022-09-27T20:18:43.160Z,1.30
2022-09-27T20:21:09.737Z,1.30
2022-09-27T20:23:37.354Z,1.50
2022-09-27T20:26:09.472Z,1.17
2022-09-27T20:28:43.527Z,1.30
2022-09-27T20:31:12.341Z,1.40
2022-09-27T20:33:41.559Z,1.52
2022-09-27T20:36:16.168Z,1.48
2022-09-27T20:38:44.332Z,1.70
2022-09-27T20:41:12.165Z,1.50
2022-09-27T20:43:39.005Z,1.88
2022-09-27T20:46:12.173Z,1.90
2022-09-27T20:48:38.645Z,2.15
2022-09-27T20:51:06.450Z,1.97
2022-09-27T20:53:33.552Z,2.35
2022-09-27T20:56:02.767Z,2.20
2022-09-27T20:58:30.097Z,2.20
2022-09-27T21:00:56.512Z,2.30
2022-09-27T21:03:22.958Z,2.07
2022-09-27T21:05:56.670Z,2.47
2022-09-27T21:08:23.815Z,2.72
2022-09-27T21:10:52.949Z,2.40
2022-09-27T21:13:20.307Z,2.88
2022-09-27T21:15:47.283Z,3.30
2022-09-27T21:18:13.783Z,3.20
2022-09-27T21:20:40.169Z,3.38
2022-09-27T21:23:06.567Z,3.20
2022-09-27T21:25:32.921Z,2.63
2022-09-27T21:27:59.357Z,3.10
2022-09-27T21:30:25.855Z,2.78
2022-09-27T21:32:55.811Z,2.63
2022-09-27T21:35:22.652Z,2.90
2022-09-27T21:37:50.416Z,2.55
2022-09-27T21:40:17.010Z,2.60
2022-09-27T21:42:43.630Z,2.80
2022-09-27T21:45:10.546Z,2.50
2022-09-27T21:47:36.903Z,3.00
2022-09-27T21:50:03.500Z,2.90
2022-09-27T21:52:29.893Z,2.97
2022-09-27T21:54:56.251Z,2.78
2022-09-27T21:57:22.645Z,2.63
2022-09-27T21:59:48.999Z,2.75
2022-09-27T22:02:18.952Z,2.92
2022-09-27T22:04:45.429Z,2.80
2022-09-27T22:07:11.881Z,2.80
2022-09-27T22:09:38.320Z,2.60
2022-09-27T22:12:04.817Z,2.65
2022-09-27T22:14:33.906Z,2.55
2022-09-27T22:17:00.277Z,2.60
2022-09-27T22:19:26.758Z,2.63
2022-09-27T22:21:53.141Z,2.78
2022-09-27T22:24:19.549Z,3.38
2022-09-27T22:26:49.690Z,3.28
2022-09-27T22:29:16.830Z,3.00
2022-09-27T22:31:43.658Z,2.80
2022-09-27T22:34:26.096Z,2.80
2022-09-27T22:36:52.592Z,2.90
2022-09-27T22:39:18.958Z,2.90
2022-09-27T22:41:45.410Z,2.90
2022-09-27T22:44:11.777Z,3.10
2022-09-27T22:46:38.212Z,3.13
2022-09-27T22:49:04.785Z,3.17
2022-09-27T22:51:31.194Z,3.65
2022-09-27T22:53:57.634Z,3.63
2022-09-27T22:56:24.144Z,3.28
2022-09-27T22:58:50.885Z,4.10
2022-09-27T23:01:20.211Z,3.63
2022-09-27T23:03:47.880Z,3.88
2022-09-27T23:06:16.588Z,3.43
2022-09-27T23:08:43.157Z,3.63
2022-09-27T23:11:11.955Z,3.58
2022-09-27T23:13:41.589Z,3.97
2022-09-27T23:16:11.065Z,3.92
2022-09-27T23:18:38.139Z,3.83
2022-09-27T23:21:07.188Z,3.50
2022-09-27T23:23:34.999Z,3.72
2022-09-27T23:26:04.400Z,3.78
2022-09-27T23:28:32.343Z,3.92
2022-09-27T23:31:13.819Z,4.13
2022-09-27T23:33:42.400Z,4.00
2022-09-27T23:36:12.132Z,3.92
2022-09-27T23:38:40.310Z,3.50
2022-09-27T23:41:08.219Z,3.80
2022-09-27T23:43:36.083Z,3.33
2022-09-27T23:46:03.883Z,3.72
2022-09-27T23:48:30.266Z,4.32
2022-09-27T23:50:57.229Z,4.40
2022-09-27T23:53:24.145Z,3.92
2022-09-27T23:56:06.040Z,4.27
2022-09-27T23:58:38.038Z,4.70
